UUWW/VKO METAR and TAF weather

Enter ICAO airport designator
Station Type Date Time Source
UUWW METAR 2022/01/29 13:00 UTC NOAA

UUWW 291300Z 24002MPS 1800 R24/1700U SHSN FEW010 BKN020CB M04/M05 Q1003 R24/590537 TEMPO 1000 SHSN BR BKN016CB


Station Type Date Time Source
UUWW Decoded METAR 2022/01/29 13:00 UTC NOAA

Moscow / Vnukovo , Russia (UUWW) 55-39N 037-16E
Jan 29, 2022 - 08:00 AM EST / 2022.01.29 1300 UTC
Wind: from the WSW (240 degrees) at 4 MPH (4 KT):0
Visibility: 1 mile(s):0
Sky conditions: mostly cloudy
Weather: snow showers; Cumulonimbus clouds observed
Temperature: 24 F (-4 C)
Dew Point: 23 F (-5 C)
Relative Humidity: 92%
Pressure (altimeter): 29.62 in. Hg (1003 hPa)
ob: UUWW 291300Z 24002MPS 1800 R24/1700U SHSN FEW010 BKN020CB M04/M05 Q1003 R24/590537 TEMPO 1000 SHSN BR BKN016CB
cycle: 13

Station Type Date Time Source
UUWW TAF 2022/01/29 12:21 UTC NOAA

TAF UUWW 291057Z 2912/3012 VRB01MPS 4500 -SN BR FEW007 OVC016 TXM03/2912Z TNM06/3003Z
TEMPO 2912/2918 1000 SHSN BKN004 BKN012CB
BECMG 3000/3003 17006MPS
BECMG 3008/3010 2100 -SN
TEMPO 3010/3012 16009G16MPS 0800 +SHSN BLSN BKN004 BKN012CB

Example: see airport list